Time;durP1;ratioP1;P1;durP2;ratioP2;P2;SDS_P1;SDS_P2;PMS_P1;PMS_P2;Temp;Humidity;BMP_temperature;BMP_pressure;BME280_temperature;BME280_humidity;BME280_pressure;Samples;Min_cycle;Max_cycle;Signal;HPM_P1;HPM_P2
2023/10/29 00:00:09;;;;;;;4.55;1.10;;;11.90;76.20;;;;;;4866176;29;20056;-91
2023/10/29 00:02:36;;;;;;;4.53;0.73;;;11.90;76.30;;;;;;4900330;29;20048;-91
2023/10/29 00:05:04;;;;;;;3.38;0.98;;;12.00;76.00;;;;;;4896211;29;20054;-90
2023/10/29 00:07:31;;;;;;;4.20;0.83;;;12.00;76.10;;;;;;4883838;29;20052;-90
2023/10/29 00:09:58;;;;;;;4.13;0.90;;;12.00;76.00;;;;;;4863695;29;20083;-90
2023/10/29 00:12:25;;;;;;;3.25;1.05;;;12.00;76.10;;;;;;4858540;29;20053;-90
2023/10/29 00:14:52;;;;;;;3.83;0.90;;;12.00;76.20;;;;;;4895801;29;20075;-90
2023/10/29 00:17:19;;;;;;;3.83;0.90;;;11.90;76.50;;;;;;4885293;29;20504;-90
2023/10/29 00:19:46;;;;;;;4.37;1.00;;;12.00;76.30;;;;;;4840585;29;20045;-90
2023/10/29 00:22:13;;;;;;;4.15;1.00;;;12.00;75.90;;;;;;4862348;29;20046;-90
2023/10/29 00:24:40;;;;;;;4.05;0.93;;;12.00;75.90;;;;;;4861941;29;20060;-90
2023/10/29 00:27:07;;;;;;;3.90;1.00;;;12.00;75.60;;;;;;4862471;29;20417;-90
2023/10/29 00:29:34;;;;;;;3.15;0.80;;;12.00;75.70;;;;;;4861850;29;20504;-90
2023/10/29 00:32:01;;;;;;;4.70;1.10;;;12.10;75.50;;;;;;4835816;29;20045;-89
2023/10/29 00:34:28;;;;;;;4.00;1.00;;;12.00;75.40;;;;;;4862730;29;20073;-91
2023/10/29 00:36:55;;;;;;;3.40;1.00;;;12.00;75.60;;;;;;4877505;29;20085;-91
2023/10/29 00:39:23;;;;;;;4.72;1.00;;;12.00;75.60;;;;;;4865046;29;20052;-89
2023/10/29 00:41:50;;;;;;;4.18;1.17;;;12.00;75.50;;;;;;4850894;29;20577;-90
2023/10/29 00:44:17;;;;;;;3.47;0.90;;;12.00;75.60;;;;;;4836429;29;20049;-90
2023/10/29 00:46:44;;;;;;;4.90;0.90;;;12.00;75.40;;;;;;4835938;29;20110;-90
2023/10/29 00:49:12;;;;;;;7.32;1.30;;;12.00;75.30;;;;;;4856124;29;20130;-90
2023/10/29 00:51:39;;;;;;;4.78;1.20;;;12.00;74.90;;;;;;4836785;29;20054;-90
2023/10/29 00:54:07;;;;;;;4.18;1.08;;;12.10;75.00;;;;;;4861008;29;20057;-90
2023/10/29 00:56:35;;;;;;;5.20;1.00;;;12.10;74.90;;;;;;4861849;29;20048;-90
2023/10/29 00:59:02;;;;;;;3.65;0.93;;;12.10;75.00;;;;;;4862128;29;20133;-90
2023/10/29 01:01:30;;;;;;;5.78;1.33;;;12.00;74.80;;;;;;4861726;29;20056;-90
2023/10/29 01:03:58;;;;;;;3.90;0.60;;;12.10;74.80;;;;;;4846678;29;20492;-90
2023/10/29 01:06:26;;;;;;;3.50;1.02;;;12.00;74.80;;;;;;4837211;29;20046;-90
2023/10/29 01:08:54;;;;;;;4.27;0.80;;;12.00;74.90;;;;;;4855421;29;20064;-90
2023/10/29 01:11:22;;;;;;;4.30;0.98;;;12.10;74.60;;;;;;4876688;29;20128;-90
2023/10/29 01:13:49;;;;;;;4.35;0.90;;;12.10;74.60;;;;;;4859350;29;20050;-89
2023/10/29 01:16:18;;;;;;;4.30;0.70;;;12.10;74.50;;;;;;4850736;29;20053;-90
2023/10/29 01:18:45;;;;;;;4.80;0.93;;;12.10;74.30;;;;;;4882271;29;20041;-90
2023/10/29 01:21:12;;;;;;;2.87;0.80;;;12.10;74.40;;;;;;4894107;29;20053;-89
2023/10/29 01:23:39;;;;;;;4.80;0.93;;;12.10;74.00;;;;;;4876659;29;20079;-90
2023/10/29 01:26:06;;;;;;;4.68;1.25;;;12.10;74.30;;;;;;4898507;29;20045;-89
2023/10/29 01:28:33;;;;;;;3.45;0.73;;;12.10;73.90;;;;;;4858752;29;20100;-90
2023/10/29 01:31:00;;;;;;;4.05;1.05;;;12.10;73.90;;;;;;4898635;29;20064;-90
2023/10/29 01:33:27;;;;;;;4.70;1.00;;;12.10;74.10;;;;;;4882909;29;20406;-90
2023/10/29 01:35:55;;;;;;;3.92;0.60;;;12.10;73.70;;;;;;4882700;29;20055;-90
2023/10/29 01:38:22;;;;;;;2.55;0.60;;;12.00;73.50;;;;;;4868653;29;20045;-90
2023/10/29 01:40:49;;;;;;;3.53;0.75;;;12.00;73.60;;;;;;4900107;29;20495;-90
2023/10/29 01:43:16;;;;;;;2.35;0.60;;;12.10;73.40;;;;;;4898696;29;20530;-90
2023/10/29 01:45:43;;;;;;;4.37;1.00;;;12.10;73.20;;;;;;4882712;29;20120;-90
2023/10/29 01:48:10;;;;;;;2.78;0.70;;;12.20;73.20;;;;;;4898376;29;20059;-89
2023/10/29 01:50:37;;;;;;;3.67;0.85;;;12.10;73.30;;;;;;4891382;29;20127;-90
2023/10/29 01:53:05;;;;;;;4.90;0.80;;;12.10;73.60;;;;;;4898370;29;20096;-90
2023/10/29 01:55:36;;;;;;;3.08;0.60;;;12.10;73.60;;;;;;4882777;29;20131;-90
2023/10/29 01:58:03;;;;;;;2.60;0.60;;;12.00;73.30;;;;;;4882624;29;20044;-89
2023/10/29 02:00:30;;;;;;;4.30;0.80;;;12.10;73.50;;;;;;4897999;29;20045;-89
2023/10/29 02:02:58;;;;;;;2.97;0.52;;;12.10;73.40;;;;;;4898146;29;20126;-90
2023/10/29 02:05:26;;;;;;;3.95;0.70;;;12.10;73.40;;;;;;4867331;29;20048;-90
2023/10/29 02:07:55;;;;;;;3.22;0.88;;;12.20;73.50;;;;;;4882911;29;20068;-89
2023/10/29 02:10:25;;;;;;;3.47;0.70;;;12.00;73.50;;;;;;4897780;29;20047;-89
2023/10/29 02:12:53;;;;;;;5.45;0.88;;;12.00;73.50;;;;;;4894400;29;20069;-90
2023/10/29 02:15:20;;;;;;;4.15;0.85;;;12.00;73.60;;;;;;4892803;29;20056;-89
2023/10/29 02:17:47;;;;;;;3.17;0.65;;;12.00;73.80;;;;;;4871635;29;20063;-91
2023/10/29 02:20:14;;;;;;;3.47;0.63;;;12.00;73.40;;;;;;4871492;29;20095;-90
2023/10/29 02:22:41;;;;;;;3.90;0.50;;;12.00;73.70;;;;;;4897807;29;20044;-90
2023/10/29 02:25:08;;;;;;;3.90;0.63;;;12.00;73.80;;;;;;4873546;29;20049;-90
2023/10/29 02:27:35;;;;;;;3.50;0.70;;;12.00;73.70;;;;;;4877642;29;20060;-90
2023/10/29 02:30:02;;;;;;;2.38;0.52;;;12.00;73.50;;;;;;4898622;29;20052;-90
2023/10/29 02:32:29;;;;;;;2.70;0.50;;;12.00;73.50;;;;;;4886072;29;20079;-90
2023/10/29 02:34:56;;;;;;;3.77;0.60;;;12.10;72.80;;;;;;4901825;29;20045;-90
2023/10/29 02:37:23;;;;;;;2.08;0.40;;;12.10;73.00;;;;;;4886101;29;20059;-90
2023/10/29 02:39:51;;;;;;;2.72;0.63;;;12.00;72.80;;;;;;4884415;29;20056;-89
2023/10/29 02:42:19;;;;;;;7.28;0.80;;;12.00;72.90;;;;;;4886030;29;20139;-90
2023/10/29 02:44:47;;;;;;;3.90;0.60;;;12.00;73.20;;;;;;4881317;29;20080;-90
2023/10/29 02:47:14;;;;;;;2.73;0.57;;;12.00;73.50;;;;;;4901296;29;20083;-89
2023/10/29 02:49:41;;;;;;;3.25;0.65;;;11.90;73.80;;;;;;4886136;29;20056;-91
2023/10/29 02:52:10;;;;;;;2.70;0.70;;;11.80;74.30;;;;;;4885657;29;20132;-89
2023/10/29 02:54:37;;;;;;;3.40;0.70;;;11.80;74.50;;;;;;4901366;29;20062;-90
2023/10/29 02:57:04;;;;;;;3.10;0.93;;;11.70;74.80;;;;;;4901284;29;20040;-90
2023/10/29 02:59:31;;;;;;;3.63;0.70;;;11.60;75.30;;;;;;4879255;29;20038;-90
2023/10/29 03:01:58;;;;;;;3.15;0.65;;;11.60;75.40;;;;;;4885510;29;20057;-90
2023/10/29 03:04:25;;;;;;;3.05;0.70;;;11.60;75.50;;;;;;4867479;29;20045;-89
2023/10/29 03:06:52;;;;;;;4.85;0.70;;;11.50;75.60;;;;;;4895203;29;20439;-90
2023/10/29 03:09:19;;;;;;;4.25;0.93;;;11.60;75.70;;;;;;4885294;29;20044;-89
2023/10/29 03:11:46;;;;;;;2.83;0.60;;;11.60;75.80;;;;;;4884105;29;20144;-90
2023/10/29 03:14:15;;;;;;;3.05;0.70;;;11.60;75.70;;;;;;4890221;29;20064;-90
2023/10/29 03:16:42;;;;;;;4.07;1.10;;;11.50;75.70;;;;;;4874616;29;20048;-90
2023/10/29 03:19:09;;;;;;;3.28;0.60;;;11.60;75.80;;;;;;4901029;29;20044;-90
2023/10/29 03:21:36;;;;;;;4.10;0.80;;;11.60;75.90;;;;;;4899983;29;20056;-90
2023/10/29 03:24:04;;;;;;;4.67;0.90;;;11.50;76.00;;;;;;4883827;29;20530;-89
2023/10/29 03:26:31;;;;;;;5.80;0.80;;;11.50;75.90;;;;;;4882664;29;20053;-89
2023/10/29 03:28:58;;;;;;;4.10;0.70;;;11.50;76.00;;;;;;4868641;29;20105;-89
2023/10/29 03:31:25;;;;;;;4.18;0.75;;;11.50;75.90;;;;;;4870024;29;20093;-89
2023/10/29 03:33:52;;;;;;;2.78;0.82;;;11.50;75.90;;;;;;4885355;29;20562;-89
2023/10/29 03:36:19;;;;;;;4.47;0.73;;;11.50;76.00;;;;;;4885239;29;20100;-89
2023/10/29 03:38:47;;;;;;;8.57;0.90;;;11.50;76.00;;;;;;4882631;29;20128;-89
2023/10/29 03:41:19;;;;;;;3.28;0.70;;;11.50;76.20;;;;;;4883789;29;20052;-90
2023/10/29 03:43:48;;;;;;;4.45;0.80;;;11.40;76.10;;;;;;4869781;29;20088;-89
2023/10/29 03:46:15;;;;;;;3.22;0.95;;;11.30;76.40;;;;;;4900564;29;20491;-89
2023/10/29 03:48:44;;;;;;;4.33;0.90;;;11.30;76.50;;;;;;4869547;29;20107;-89
2023/10/29 03:51:12;;;;;;;3.42;0.80;;;11.30;76.50;;;;;;4900548;29;20064;-89
2023/10/29 03:53:40;;;;;;;2.78;0.70;;;11.30;76.40;;;;;;4885047;29;20059;-89
2023/10/29 03:56:08;;;;;;;4.80;0.80;;;11.30;76.30;;;;;;4900303;29;20073;-90
2023/10/29 03:58:35;;;;;;;4.68;1.02;;;11.30;76.40;;;;;;4884782;29;20048;-90
2023/10/29 04:01:02;;;;;;;4.13;0.93;;;11.20;76.40;;;;;;4900559;29;20049;-91
2023/10/29 04:03:30;;;;;;;4.43;0.90;;;11.20;76.50;;;;;;4884658;29;20076;-89
2023/10/29 04:05:58;;;;;;;3.03;0.90;;;11.20;76.60;;;;;;4900189;29;20464;-90
2023/10/29 04:08:25;;;;;;;4.20;0.85;;;11.20;76.60;;;;;;4899985;29;20044;-89
2023/10/29 04:10:52;;;;;;;6.20;0.95;;;11.20;76.60;;;;;;4899772;29;20082;-89
2023/10/29 04:13:19;;;;;;;3.60;0.73;;;11.20;76.60;;;;;;4880450;29;20037;-89
2023/10/29 04:15:46;;;;;;;2.83;0.63;;;11.30;76.60;;;;;;4900020;29;20050;-89
2023/10/29 04:18:13;;;;;;;4.07;1.00;;;11.30;76.70;;;;;;4884256;29;20083;-89
2023/10/29 04:20:41;;;;;;;2.85;0.60;;;11.30;76.70;;;;;;4900134;29;20510;-90
2023/10/29 04:23:08;;;;;;;3.67;0.70;;;11.40;76.70;;;;;;4899960;29;20052;-90
2023/10/29 04:25:35;;;;;;;4.30;0.80;;;11.40;76.50;;;;;;4899832;29;20044;-89
2023/10/29 04:28:02;;;;;;;2.65;0.60;;;11.50;76.20;;;;;;4896875;29;20143;-89
2023/10/29 04:30:29;;;;;;;3.30;0.70;;;11.50;76.00;;;;;;4898102;29;20049;-89
2023/10/29 04:32:56;;;;;;;4.10;0.60;;;11.50;76.00;;;;;;4895440;29;20141;-89
2023/10/29 04:35:23;;;;;;;3.22;0.50;;;11.40;75.80;;;;;;4882661;29;20036;-90
2023/10/29 04:37:50;;;;;;;4.53;0.80;;;11.40;76.00;;;;;;4899355;29;20508;-90
2023/10/29 04:40:17;;;;;;;3.08;0.70;;;11.40;76.20;;;;;;4883810;29;20059;-89
2023/10/29 04:42:44;;;;;;;4.43;0.77;;;11.30;76.30;;;;;;4883957;29;20410;-89
2023/10/29 04:45:11;;;;;;;4.30;0.70;;;11.30;76.40;;;;;;4883710;29;20104;-90
2023/10/29 04:47:38;;;;;;;3.67;0.85;;;11.40;76.50;;;;;;4899514;29;20057;-90
2023/10/29 04:50:06;;;;;;;4.10;0.73;;;11.30;76.60;;;;;;4868328;29;20131;-90
2023/10/29 04:52:33;;;;;;;3.45;0.80;;;11.30;76.60;;;;;;4883325;29;20091;-90
2023/10/29 04:55:01;;;;;;;4.95;0.75;;;11.30;76.80;;;;;;4886155;29;20048;-90
2023/10/29 04:57:29;;;;;;;3.30;0.60;;;11.30;76.80;;;;;;4883671;29;20456;-90
2023/10/29 04:59:56;;;;;;;6.95;1.10;;;11.40;76.60;;;;;;4899249;29;20056;-89
2023/10/29 05:02:23;;;;;;;3.20;0.80;;;11.40;76.70;;;;;;4869591;29;20048;-90
2023/10/29 05:04:51;;;;;;;4.25;0.82;;;11.40;76.60;;;;;;4898757;29;20048;-90
2023/10/29 05:07:18;;;;;;;7.25;0.88;;;11.50;76.80;;;;;;4899023;29;20040;-90
2023/10/29 05:09:45;;;;;;;3.13;0.70;;;11.50;76.70;;;;;;4898601;29;20044;-90
2023/10/29 05:12:12;;;;;;;4.05;0.80;;;11.50;76.60;;;;;;4879932;29;20520;-90
2023/10/29 05:14:39;;;;;;;4.57;0.90;;;11.50;76.50;;;;;;4899111;29;20048;-90
2023/10/29 05:17:07;;;;;;;4.22;0.95;;;11.50;76.50;;;;;;4883401;29;20124;-90
2023/10/29 05:19:34;;;;;;;4.80;1.05;;;11.50;76.60;;;;;;4867887;29;20064;-89
2023/10/29 05:22:01;;;;;;;3.95;0.88;;;11.50;76.80;;;;;;4898504;29;20052;-89
2023/10/29 05:24:28;;;;;;;5.85;1.05;;;11.50;76.90;;;;;;4898296;29;20044;-90
2023/10/29 05:26:54;;;;;;;3.33;1.00;;;11.50;76.90;;;;;;4883122;29;20053;-90
2023/10/29 05:29:22;;;;;;;4.68;0.75;;;11.50;77.00;;;;;;4897686;29;20063;-90
2023/10/29 05:31:49;;;;;;;4.28;1.13;;;11.50;76.90;;;;;;4899093;29;20044;-89
2023/10/29 05:34:15;;;;;;;3.10;0.80;;;11.50;76.80;;;;;;4883336;29;20040;-89
2023/10/29 05:36:43;;;;;;;5.00;1.20;;;11.50;76.90;;;;;;4898275;29;20056;-89
2023/10/29 05:39:10;;;;;;;5.10;0.90;;;11.50;77.00;;;;;;4899045;29;20048;-89
2023/10/29 05:41:37;;;;;;;5.05;1.00;;;11.50;77.10;;;;;;4883094;29;20068;-89
2023/10/29 05:44:04;;;;;;;2.88;0.70;;;11.50;77.10;;;;;;4892955;29;20098;-89
2023/10/29 05:46:32;;;;;;;2.72;0.60;;;11.50;77.10;;;;;;4880593;29;20429;-89
2023/10/29 05:48:59;;;;;;;3.50;0.68;;;11.50;77.10;;;;;;4877646;29;20108;-89
2023/10/29 05:51:27;;;;;;;3.83;0.87;;;11.50;77.20;;;;;;4898315;29;20080;-90
2023/10/29 05:53:55;;;;;;;4.13;0.80;;;11.50;77.20;;;;;;4896835;29;20499;-89
2023/10/29 05:56:23;;;;;;;4.50;0.85;;;11.60;77.10;;;;;;4898415;29;20562;-89
2023/10/29 05:58:50;;;;;;;3.92;0.82;;;11.50;77.20;;;;;;4881705;29;20105;-86
2023/10/29 06:01:17;;;;;;;4.22;0.95;;;11.60;77.30;;;;;;4878307;29;20443;-87
2023/10/29 06:03:44;;;;;;;4.50;0.90;;;11.60;77.20;;;;;;4897661;29;20052;-87
2023/10/29 06:06:11;;;;;;;5.38;1.10;;;11.60;77.20;;;;;;4876242;29;20132;-86
2023/10/29 06:08:38;;;;;;;6.50;1.02;;;11.70;77.20;;;;;;4882027;29;20108;-86
2023/10/29 06:11:06;;;;;;;4.30;0.80;;;11.70;77.10;;;;;;4896746;29;20052;-87
2023/10/29 06:13:35;;;;;;;3.85;0.93;;;11.70;77.00;;;;;;4881728;29;20415;-87
2023/10/29 06:16:08;;;;;;;3.73;0.97;;;11.70;77.10;;;;;;4879588;29;20044;-87
2023/10/29 06:18:35;;;;;;;8.02;0.93;;;11.70;77.30;;;;;;4882108;29;20048;-87
2023/10/29 06:21:03;;;;;;;3.30;0.65;;;11.70;77.10;;;;;;4897790;29;20049;-87
2023/10/29 06:23:30;;;;;;;5.45;1.20;;;11.80;77.00;;;;;;4898108;29;20127;-87
2023/10/29 06:25:57;;;;;;;5.70;0.90;;;11.80;77.00;;;;;;4898047;29;20052;-87
2023/10/29 06:28:24;;;;;;;4.03;0.70;;;11.90;76.80;;;;;;4898169;29;20411;-87
2023/10/29 06:30:52;;;;;;;5.55;1.00;;;11.80;76.90;;;;;;4898053;29;20063;-90
2023/10/29 06:33:19;;;;;;;3.00;1.05;;;11.90;77.00;;;;;;4882014;29;20483;-87
2023/10/29 06:35:46;;;;;;;4.07;1.02;;;11.90;76.80;;;;;;4881308;29;20466;-87
2023/10/29 06:38:14;;;;;;;6.25;1.08;;;11.90;76.90;;;;;;4898623;29;20487;-89
2023/10/29 06:40:41;;;;;;;4.70;0.67;;;12.00;76.90;;;;;;4868055;29;20052;-88
2023/10/29 06:43:08;;;;;;;5.15;1.27;;;12.00;76.80;;;;;;4865077;29;20054;-87
2023/10/29 06:45:36;;;;;;;5.15;1.52;;;12.00;76.80;;;;;;4898700;29;20072;-87
2023/10/29 06:48:03;;;;;;;7.30;1.63;;;12.10;76.70;;;;;;4882975;29;21182;-88
2023/10/29 06:50:30;;;;;;;7.00;1.08;;;12.10;76.80;;;;;;4897509;29;20059;-88
2023/10/29 06:52:58;;;;;;;5.63;1.30;;;12.20;76.60;;;;;;4897822;29;20048;-90
2023/10/29 06:55:25;;;;;;;8.20;1.15;;;12.20;76.50;;;;;;4897356;29;20041;-87
2023/10/29 06:57:52;;;;;;;4.72;1.02;;;12.30;76.40;;;;;;4862473;29;20048;-91
2023/10/29 07:00:19;;;;;;;5.47;0.90;;;12.40;76.30;;;;;;4882481;29;20052;-91
2023/10/29 07:02:47;;;;;;;3.97;1.10;;;12.50;76.50;;;;;;4898461;29;20107;-93
2023/10/29 07:05:14;;;;;;;5.67;0.90;;;12.50;76.10;;;;;;4899556;29;20048;-93
2023/10/29 07:11:43;;;;;;;6.70;1.00;;;12.60;75.80;;;;;;4900892;29;20103;-94
2023/10/29 07:14:11;;;;;;;3.17;0.70;;;12.80;75.30;;;;;;4884107;29;20045;-94
2023/10/29 07:16:44;;;;;;;5.50;1.13;;;12.90;75.30;;;;;;4883895;29;20058;-94
2023/10/29 07:19:16;;;;;;;4.50;0.90;;;13.00;75.00;;;;;;4886351;29;20057;-94
2023/10/29 07:21:44;;;;;;;4.57;0.82;;;13.10;74.80;;;;;;4901776;29;20075;-91
2023/10/29 07:24:11;;;;;;;5.85;1.02;;;13.10;74.60;;;;;;4886714;29;20057;-93
2023/10/29 07:26:40;;;;;;;4.18;0.80;;;13.20;74.30;;;;;;4902364;29;20164;-93
2023/10/29 07:29:11;;;;;;;5.65;1.15;;;13.20;74.40;;;;;;4901799;29;20056;-92
2023/10/29 07:31:38;;;;;;;4.27;0.90;;;13.20;74.50;;;;;;4901327;29;20123;-92
2023/10/29 07:34:05;;;;;;;2.80;0.63;;;13.30;74.40;;;;;;4901182;29;20073;-90
2023/10/29 07:36:32;;;;;;;5.15;0.90;;;13.30;74.10;;;;;;4901647;29;20048;-90
2023/10/29 07:39:00;;;;;;;6.38;1.25;;;13.50;73.90;;;;;;4901109;29;20144;-87
2023/10/29 07:41:27;;;;;;;3.65;0.90;;;13.50;73.40;;;;;;4885179;29;20115;-87
2023/10/29 07:43:55;;;;;;;4.00;0.60;;;13.50;73.10;;;;;;4885102;29;20048;-87
2023/10/29 07:46:22;;;;;;;3.53;0.80;;;13.60;72.70;;;;;;4869708;29;20049;-86
2023/10/29 07:48:49;;;;;;;5.00;0.90;;;13.60;72.70;;;;;;4878012;29;20143;-87
2023/10/29 07:51:16;;;;;;;4.63;0.90;;;13.60;72.50;;;;;;4866213;29;20049;-86
2023/10/29 07:53:43;;;;;;;4.50;1.10;;;13.70;72.40;;;;;;4866551;29;20051;-86
2023/10/29 07:56:12;;;;;;;4.17;0.87;;;13.70;72.60;;;;;;4866414;29;20522;-86
2023/10/29 07:58:40;;;;;;;5.07;0.98;;;13.80;72.50;;;;;;4866331;29;20544;-87
2023/10/29 08:01:15;;;;;;;4.68;1.20;;;13.80;72.40;;;;;;4866102;29;20057;-86
2023/10/29 08:03:45;;;;;;;4.22;0.90;;;13.90;72.50;;;;;;4866097;29;20048;-87
2023/10/29 08:06:13;;;;;;;3.70;0.70;;;13.90;72.10;;;;;;4875299;29;20056;-87
2023/10/29 08:08:40;;;;;;;3.80;0.80;;;13.90;72.30;;;;;;4866068;29;20049;-87
2023/10/29 08:11:20;;;;;;;4.80;0.80;;;14.00;71.90;;;;;;4850671;29;20053;-87
2023/10/29 08:13:48;;;;;;;4.38;0.80;;;14.00;71.60;;;;;;4873649;29;20113;-86
2023/10/29 08:16:15;;;;;;;3.42;0.70;;;14.10;70.80;;;;;;4878595;29;20136;-87
2023/10/29 08:18:42;;;;;;;5.38;0.80;;;14.10;71.00;;;;;;4865953;29;20053;-87
2023/10/29 08:21:09;;;;;;;5.87;1.10;;;14.20;71.70;;;;;;4850663;29;20049;-87
2023/10/29 08:23:37;;;;;;;5.80;0.90;;;14.30;71.10;;;;;;4873944;29;20045;-86
2023/10/29 08:26:04;;;;;;;4.82;1.20;;;14.40;70.70;;;;;;4865979;29;20063;-87
2023/10/29 08:28:31;;;;;;;3.25;0.75;;;14.50;70.90;;;;;;4880925;29;20104;-86
2023/10/29 08:30:58;;;;;;;7.10;1.13;;;14.50;69.80;;;;;;4870589;29;20057;-87
2023/10/29 08:33:27;;;;;;;3.20;0.70;;;14.60;70.60;;;;;;4884098;29;20139;-87
2023/10/29 08:35:54;;;;;;;3.90;0.90;;;14.60;69.60;;;;;;4884257;29;20049;-87
2023/10/29 08:38:22;;;;;;;6.00;1.00;;;14.60;69.90;;;;;;4884280;29;20135;-87
2023/10/29 08:40:49;;;;;;;4.45;0.90;;;14.70;69.60;;;;;;4884082;29;20104;-87
2023/10/29 08:43:16;;;;;;;4.72;0.88;;;14.80;69.90;;;;;;4899579;29;20041;-87
2023/10/29 08:45:43;;;;;;;5.40;0.90;;;14.90;69.70;;;;;;4899408;29;20041;-87
2023/10/29 08:48:10;;;;;;;4.03;0.80;;;14.90;69.80;;;;;;4899534;29;20052;-87
2023/10/29 08:50:38;;;;;;;4.80;0.90;;;15.00;69.10;;;;;;4899241;29;20496;-87
2023/10/29 08:53:06;;;;;;;8.65;0.85;;;15.00;69.50;;;;;;4899215;29;20511;-87
2023/10/29 08:55:36;;;;;;;10.13;3.30;;;15.00;70.10;;;;;;4899436;29;20538;-87
2023/10/29 08:58:03;;;;;;;4.03;1.00;;;15.20;69.10;;;;;;4899046;29;20044;-87
2023/10/29 09:00:31;;;;;;;6.13;0.70;;;15.20;69.40;;;;;;4883695;29;20049;-87
2023/10/29 09:03:15;;;;;;;4.32;0.90;;;15.20;69.20;;;;;;4883647;29;20088;-87
2023/10/29 09:05:43;;;;;;;5.97;0.80;;;15.20;68.10;;;;;;4868462;29;20418;-87
2023/10/29 09:08:11;;;;;;;5.90;0.90;;;15.20;68.70;;;;;;4883560;29;20063;-87
2023/10/29 09:10:42;;;;;;;7.13;0.90;;;15.30;68.40;;;;;;4883480;29;20048;-86
2023/10/29 09:13:10;;;;;;;5.60;0.70;;;15.30;68.00;;;;;;4868249;29;20104;-87
2023/10/29 09:15:38;;;;;;;8.00;1.00;;;15.40;68.10;;;;;;4883491;29;20048;-87
2023/10/29 09:18:05;;;;;;;5.25;0.68;;;15.50;68.20;;;;;;4898551;29;20811;-87
2023/10/29 09:20:33;;;;;;;3.70;0.85;;;15.50;68.20;;;;;;4899346;29;20083;-87
2023/10/29 09:23:00;;;;;;;2.87;0.70;;;15.60;67.80;;;;;;4883255;29;20052;-87
2023/10/29 09:25:27;;;;;;;5.18;0.90;;;15.70;67.50;;;;;;4898922;29;20044;-87
2023/10/29 09:27:55;;;;;;;3.13;0.60;;;15.70;68.00;;;;;;4898657;29;20053;-86
2023/10/29 09:30:22;;;;;;;5.78;0.80;;;15.80;67.50;;;;;;4898429;29;20618;-86
2023/10/29 09:32:49;;;;;;;5.35;0.80;;;15.90;67.70;;;;;;4898330;29;20147;-86
2023/10/29 09:35:17;;;;;;;5.20;0.70;;;16.00;67.40;;;;;;4898568;29;20434;-86
2023/10/29 09:37:44;;;;;;;3.58;0.88;;;16.10;66.40;;;;;;4898254;29;20100;-87
2023/10/29 09:40:14;;;;;;;2.88;0.73;;;16.10;66.40;;;;;;4897908;29;20049;-87
2023/10/29 09:42:54;;;;;;;6.28;0.90;;;16.20;65.40;;;;;;4896774;29;20534;-87
2023/10/29 09:45:26;;;;;;;5.15;1.00;;;16.20;65.80;;;;;;4882919;29;20091;-87
2023/10/29 09:47:55;;;;;;;4.77;0.90;;;16.20;66.40;;;;;;4867653;29;20151;-87
2023/10/29 09:50:23;;;;;;;5.43;1.20;;;16.30;65.50;;;;;;4867629;29;20072;-87
2023/10/29 09:52:52;;;;;;;5.90;1.13;;;16.30;66.70;;;;;;4867632;29;20045;-87
2023/10/29 09:55:20;;;;;;;3.40;0.80;;;16.40;65.80;;;;;;4867461;29;20051;-86
2023/10/29 09:57:48;;;;;;;5.18;1.05;;;16.30;65.10;;;;;;4898487;29;20049;-87
2023/10/29 10:00:16;;;;;;;7.60;1.20;;;16.40;65.20;;;;;;4898226;29;20087;-87
2023/10/29 10:02:55;;;;;;;4.88;0.80;;;16.40;64.80;;;;;;4867562;29;20075;-87
2023/10/29 10:05:25;;;;;;;4.10;1.00;;;16.50;64.90;;;;;;4898066;29;20147;-87
2023/10/29 10:07:52;;;;;;;3.83;0.70;;;16.50;64.10;;;;;;4867490;29;20108;-87
2023/10/29 10:10:20;;;;;;;4.90;0.85;;;16.50;64.20;;;;;;4898340;29;20056;-87
2023/10/29 10:12:50;;;;;;;6.63;1.70;;;16.60;64.40;;;;;;4882341;29;20053;-87
2023/10/29 10:15:20;;;;;;;6.35;0.90;;;16.60;64.90;;;;;;4882359;29;20411;-87
2023/10/29 10:17:56;;;;;;;7.93;1.10;;;16.80;62.70;;;;;;4882433;29;20640;-86
2023/10/29 10:20:23;;;;;;;6.93;1.00;;;16.80;63.30;;;;;;4866811;29;20091;-87
2023/10/29 10:22:57;;;;;;;3.30;0.85;;;16.90;63.90;;;;;;4897917;29;20057;-87
2023/10/29 10:25:25;;;;;;;6.60;0.97;;;16.90;62.10;;;;;;4882406;29;20049;-87
2023/10/29 10:27:55;;;;;;;5.72;0.98;;;16.80;62.00;;;;;;4867288;29;20056;-87
2023/10/29 10:30:28;;;;;;;7.40;1.27;;;16.90;62.40;;;;;;4898007;29;20067;-87
2023/10/29 10:33:10;;;;;;;5.18;1.05;;;17.00;62.10;;;;;;4897815;29;20139;-87
2023/10/29 10:35:42;;;;;;;3.75;0.90;;;17.00;61.80;;;;;;4867154;29;20053;-87
2023/10/29 10:38:11;;;;;;;5.53;1.10;;;17.00;61.50;;;;;;4882405;29;20144;-87
2023/10/29 10:40:39;;;;;;;5.22;1.15;;;17.00;62.20;;;;;;4867362;29;20063;-87
2023/10/29 10:43:07;;;;;;;6.05;1.23;;;17.00;61.70;;;;;;4897858;29;20139;-87
2023/10/29 10:45:36;;;;;;;3.53;0.80;;;16.90;62.00;;;;;;4897746;29;20108;-87
2023/10/29 10:48:05;;;;;;;7.20;1.75;;;16.90;62.30;;;;;;4866392;29;20055;-86
2023/10/29 10:50:34;;;;;;;6.73;1.60;;;17.00;61.30;;;;;;4897647;29;20045;-86
2023/10/29 10:53:04;;;;;;;7.18;2.20;;;17.00;61.60;;;;;;4885514;29;20052;-86
2023/10/29 10:55:31;;;;;;;5.03;1.75;;;17.00;61.50;;;;;;4868972;29;20041;-94
2023/10/29 10:58:03;;;;;;;8.30;2.20;;;17.10;61.20;;;;;;4901021;29;20059;-91
2023/10/29 11:00:34;;;;;;;5.03;1.20;;;17.10;61.20;;;;;;4870913;29;20044;-87
2023/10/29 11:03:02;;;;;;;5.03;1.00;;;17.20;59.60;;;;;;4883382;29;20498;-89
2023/10/29 11:05:40;;;;;;;5.70;0.77;;;17.20;61.30;;;;;;4899818;29;20735;-88
2023/10/29 11:08:07;;;;;;;5.47;0.90;;;17.30;59.30;;;;;;4895506;29;20052;-89
2023/10/29 11:10:35;;;;;;;3.55;1.15;;;17.30;60.00;;;;;;4901168;29;20048;-88
2023/10/29 11:13:20;;;;;;;3.65;0.80;;;17.40;59.80;;;;;;4885499;29;20049;-87
2023/10/29 11:15:49;;;;;;;6.97;1.60;;;17.50;59.60;;;;;;4897417;29;20456;-88
2023/10/29 11:18:28;;;;;;;5.88;1.48;;;17.50;57.60;;;;;;4869844;29;20486;-89
2023/10/29 11:20:56;;;;;;;6.22;1.52;;;17.50;58.30;;;;;;4884762;29;20384;-87
2023/10/29 11:23:30;;;;;;;5.88;1.38;;;17.50;59.10;;;;;;4869919;29;20402;-87
2023/10/29 11:26:21;;;;;;;4.72;1.48;;;17.60;59.20;;;;;;4899794;29;20052;-88
2023/10/29 11:28:51;;;;;;;5.80;1.40;;;17.70;58.30;;;;;;4883254;29;20108;-88
2023/10/29 11:31:20;;;;;;;5.10;1.00;;;17.80;58.60;;;;;;4885387;29;20526;-87
2023/10/29 11:33:48;;;;;;;5.70;1.40;;;17.90;58.40;;;;;;4869898;29;20161;-88
2023/10/29 11:36:38;;;;;;;4.68;1.00;;;17.80;58.80;;;;;;4870304;29;20079;-88
2023/10/29 11:39:14;;;;;;;7.28;1.30;;;17.80;59.30;;;;;;4870096;29;20052;-88
2023/10/29 11:41:49;;;;;;;9.87;1.93;;;17.90;58.90;;;;;;4884796;29;20045;-87
2023/10/29 11:44:19;;;;;;;8.48;1.80;;;17.90;58.10;;;;;;4885273;29;20108;-88
2023/10/29 11:46:58;;;;;;;8.40;1.58;;;17.80;58.00;;;;;;4900766;29;20067;-88
2023/10/29 11:49:26;;;;;;;6.82;1.33;;;17.70;57.90;;;;;;4900635;29;20055;-88
2023/10/29 11:52:03;;;;;;;7.78;2.50;;;17.70;58.10;;;;;;4869954;29;20044;-89
2023/10/29 11:54:32;;;;;;;7.33;2.10;;;17.80;58.10;;;;;;4885558;29;20044;-87
2023/10/29 11:56:59;;;;;;;6.90;1.85;;;17.80;58.40;;;;;;4869511;29;20072;-88
2023/10/29 11:59:26;;;;;;;7.55;1.98;;;17.90;58.20;;;;;;4864083;29;20052;-89
2023/10/29 12:01:53;;;;;;;6.32;1.10;;;17.90;58.50;;;;;;4871299;29;20053;-89
2023/10/29 12:04:20;;;;;;;3.00;0.80;;;17.80;58.20;;;;;;4865887;29;20053;-89
2023/10/29 12:06:48;;;;;;;3.50;0.67;;;17.70;57.90;;;;;;4866656;29;20069;-89
2023/10/29 12:09:27;;;;;;;4.28;0.80;;;17.50;58.30;;;;;;4883910;29;20079;-89
2023/10/29 12:11:55;;;;;;;4.55;1.00;;;17.50;58.50;;;;;;4877693;29;20063;-89
2023/10/29 12:14:43;;;;;;;7.25;1.05;;;17.50;59.10;;;;;;4900296;29;20131;-88
2023/10/29 12:17:11;;;;;;;5.25;1.10;;;17.50;59.00;;;;;;4866263;29;20596;-89
2023/10/29 12:19:41;;;;;;;5.23;1.00;;;17.40;59.20;;;;;;4884847;29;20055;-89
2023/10/29 12:22:16;;;;;;;7.47;1.50;;;17.20;58.50;;;;;;4900403;29;20052;-89
2023/10/29 12:24:43;;;;;;;3.92;1.02;;;17.10;59.30;;;;;;4869311;29;20044;-89
2023/10/29 12:27:11;;;;;;;5.65;1.00;;;17.10;59.40;;;;;;4869373;29;20526;-88
2023/10/29 12:29:38;;;;;;;4.47;1.10;;;17.10;59.40;;;;;;4884452;29;20057;-89
2023/10/29 12:32:17;;;;;;;7.53;1.53;;;17.10;59.50;;;;;;4869151;29;20045;-89
2023/10/29 12:34:49;;;;;;;7.25;1.20;;;17.20;60.40;;;;;;4899949;29;20541;-88
2023/10/29 12:37:26;;;;;;;8.75;1.83;;;17.40;59.50;;;;;;4869270;29;20045;-89
2023/10/29 12:39:56;;;;;;;7.53;1.30;;;17.50;59.50;;;;;;4868825;29;20060;-89
2023/10/29 12:42:52;;;;;;;7.25;1.70;;;17.40;58.80;;;;;;4884275;29;20056;-89
2023/10/29 12:45:31;;;;;;;5.93;1.17;;;17.40;59.20;;;;;;4900048;29;20083;-89
2023/10/29 12:48:12;;;;;;;7.78;1.60;;;17.30;58.40;;;;;;4894940;29;20057;-89
2023/10/29 12:50:47;;;;;;;7.95;1.65;;;17.20;58.80;;;;;;4873870;29;20044;-89
2023/10/29 12:53:31;;;;;;;7.40;1.15;;;17.30;59.00;;;;;;4875274;29;20048;-89
2023/10/29 12:56:01;;;;;;;5.15;1.33;;;17.30;58.00;;;;;;4866109;29;20045;-89
2023/10/29 12:58:29;;;;;;;5.93;1.23;;;17.20;58.30;;;;;;4883837;29;20059;-89